Terminal Aerodrome Forecast
Issued by NWS

Home | Current Version | Previous Version | Text Only | Print | Product List | Glossary On
Versions: 1 2 3 4 5 6 7 8 9 10 11 12 13 14 15 16 17 18 19 20 21 22 23 24 25 26 27 28 29 30 31 32
000
FTUS43 KDMX 051738
TAFMCW
TAF
KMCW 051738Z 0518/0618 11010KT 4SM BR OVC005
     FM052100 11010KT 6SM BR VCSH BKN015
     FM060300 13010KT 5SM BR OVC010
     FM061300 13009KT P6SM SCT030 BKN060=

USA.gov is the U.S. government's official web portal to all federal, state and local government web resources and services.